createdAt,value
2023-02-03T00:03:51.730Z,99549.84
2023-02-03T00:07:53.825Z,99554.34
2023-02-03T00:11:55.840Z,99559.75
2023-02-03T00:15:57.786Z,99551.47
2023-02-03T00:19:59.774Z,99564.28
2023-02-03T00:24:01.759Z,99570.41
2023-02-03T00:28:04.499Z,99582.84
2023-02-03T00:32:06.570Z,99591.88
2023-02-03T00:36:08.852Z,99600.06
2023-02-03T00:40:11.790Z,99605.97
2023-02-03T00:44:14.198Z,99605.13
2023-02-03T00:48:16.236Z,99609.69
2023-02-03T00:52:19.340Z,99592.75
2023-02-03T00:56:21.578Z,99589.75
2023-02-03T01:00:24.314Z,99607.91
2023-02-03T01:04:26.786Z,99594.22
2023-02-03T01:08:28.870Z,99584.28
2023-02-03T01:12:31.140Z,99593.84
2023-02-03T01:16:38.226Z,99585.22
2023-02-03T01:20:40.347Z,99578.25
2023-02-03T01:24:42.596Z,99577.84
2023-02-03T01:28:44.923Z,99579.78
2023-02-03T01:32:46.866Z,99585.88
2023-02-03T01:36:48.811Z,99587.06
2023-02-03T01:40:50.972Z,99582.84
2023-02-03T01:44:53.246Z,99586.19
2023-02-03T01:48:59.541Z,99575.88
2023-02-03T01:53:05.120Z,99570.63
2023-02-03T01:57:12.080Z,99568.66
2023-02-03T02:01:14.337Z,99568.75
2023-02-03T02:05:25.641Z,99577.38
2023-02-03T02:09:28.058Z,99564.44
2023-02-03T02:13:31.550Z,99562.66
2023-02-03T02:17:43.773Z,99573.50
2023-02-03T02:22:04.540Z,99587.78
2023-02-03T02:26:25.902Z,99585.34
2023-02-03T02:30:47.517Z,99591.91
2023-02-03T02:35:15.692Z,99599.25
2023-02-03T02:39:26.833Z,99572.00
2023-02-03T02:43:34.839Z,99588.16
2023-02-03T02:47:37.903Z,99584.22
2023-02-03T02:51:43.957Z,99573.88
2023-02-03T02:55:46.767Z,99569.75
2023-02-03T02:59:48.811Z,99576.19
2023-02-03T03:03:52.322Z,99570.94
2023-02-03T03:07:57.896Z,99578.81
2023-02-03T03:12:03.084Z,99583.66
2023-02-03T03:16:07.863Z,99590.41
2023-02-03T03:20:13.145Z,99590.06
2023-02-03T03:24:20.688Z,99594.16
2023-02-03T03:28:26.743Z,99613.97
2023-02-03T03:32:30.787Z,99610.00
2023-02-03T03:36:52.973Z,99606.84
2023-02-03T03:41:00.261Z,99607.66
2023-02-03T03:45:16.292Z,99600.09
2023-02-03T03:49:20.489Z,99593.69
2023-02-03T03:53:23.667Z,99591.34
2023-02-03T03:57:29.630Z,99587.28
2023-02-03T04:01:32.574Z,99589.28
2023-02-03T04:05:34.922Z,99592.75
2023-02-03T04:09:37.095Z,99596.38
2023-02-03T04:13:39.677Z,99599.94
2023-02-03T04:17:42.134Z,99599.94
2023-02-03T04:21:44.091Z,99609.91
2023-02-03T04:25:46.007Z,99593.47
2023-02-03T04:29:48.350Z,99599.97
2023-02-03T04:33:50.273Z,99614.22
2023-02-03T04:37:52.278Z,99615.78
2023-02-03T04:41:54.499Z,99613.66
2023-02-03T04:45:56.435Z,99614.94
2023-02-03T04:49:58.388Z,99638.16
2023-02-03T04:54:00.408Z,99639.03
2023-02-03T04:58:02.449Z,99643.59
2023-02-03T05:02:05.073Z,99645.88
2023-02-03T05:06:07.218Z,99642.09
2023-02-03T05:10:09.537Z,99645.50
2023-02-03T05:14:11.915Z,99630.06
2023-02-03T05:18:14.215Z,99634.19
2023-02-03T05:22:17.104Z,99640.63
2023-02-03T05:26:19.227Z,99648.66
2023-02-03T05:30:21.385Z,99651.44
2023-02-03T05:34:23.339Z,99659.59
2023-02-03T05:38:25.305Z,99653.38
2023-02-03T05:42:27.199Z,99659.63
2023-02-03T05:46:29.131Z,99658.81
2023-02-03T05:50:36.775Z,99655.53
2023-02-03T05:54:42.988Z,99643.69
2023-02-03T05:58:44.989Z,99624.19
2023-02-03T06:02:57.231Z,99635.03
2023-02-03T06:06:59.376Z,99636.44
2023-02-03T06:11:01.410Z,99631.44
2023-02-03T06:19:41.031Z,99645.50
2023-02-03T06:23:43.201Z,99647.03
2023-02-03T06:27:45.262Z,99635.31
2023-02-03T06:31:47.504Z,99652.66
2023-02-03T06:35:49.633Z,99660.53
2023-02-03T06:39:51.941Z,99656.06
2023-02-03T06:43:53.982Z,99652.25
2023-02-03T06:47:55.970Z,99646.16
2023-02-03T06:51:58.725Z,99649.09
2023-02-03T06:56:02.290Z,99653.69
2023-02-03T07:00:04.515Z,99651.38
2023-02-03T07:04:06.814Z,99649.16
2023-02-03T07:08:08.861Z,99658.69
2023-02-03T07:12:10.883Z,99666.53
2023-02-03T07:16:12.932Z,99671.97
2023-02-03T07:20:15.038Z,99679.94
2023-02-03T07:24:17.222Z,99680.03
2023-02-03T07:28:19.172Z,99678.53
2023-02-03T07:32:21.416Z,99677.38
2023-02-03T07:36:24.441Z,99684.75
2023-02-03T07:40:26.764Z,99686.94
2023-02-03T07:44:28.880Z,99687.00
2023-02-03T07:48:30.890Z,99699.34
2023-02-03T07:52:33.218Z,99706.47
2023-02-03T07:56:35.215Z,99700.25
2023-02-03T08:00:37.405Z,99694.19
2023-02-03T08:04:39.560Z,99700.31
2023-02-03T08:08:42.125Z,99680.56
2023-02-03T08:12:45.401Z,99685.25
2023-02-03T08:16:47.368Z,99657.84
2023-02-03T08:20:49.539Z,99671.50
2023-02-03T08:24:51.556Z,99720.19
2023-02-03T08:28:53.507Z,99711.84
2023-02-03T08:32:55.544Z,99725.44
2023-02-03T08:36:57.690Z,99718.50
2023-02-03T08:40:59.620Z,99736.53
2023-02-03T08:45:03.994Z,99740.84
2023-02-03T08:49:07.029Z,99753.06
2023-02-03T08:53:09.612Z,99780.59
2023-02-03T08:57:11.617Z,99783.28
2023-02-03T09:01:15.034Z,99787.59
2023-02-03T09:05:18.582Z,99788.75
2023-02-03T09:09:21.051Z,99807.91
2023-02-03T09:13:23.316Z,99819.81
2023-02-03T09:17:25.273Z,99807.72
2023-02-03T09:21:36.237Z,99804.00
2023-02-03T09:25:40.855Z,99803.78
2023-02-03T09:29:43.168Z,99800.03
2023-02-03T09:33:46.299Z,99782.84
2023-02-03T09:37:49.013Z,99757.25
2023-02-03T09:41:50.948Z,99759.25
2023-02-03T09:45:53.098Z,99763.72
2023-02-03T09:50:00.604Z,99770.06
2023-02-03T09:54:16.531Z,99769.63
2023-02-03T09:58:21.365Z,99752.31
2023-02-03T10:02:33.365Z,99738.38
2023-02-03T10:06:35.341Z,99754.41
2023-02-03T10:11:09.552Z,99737.09
2023-02-03T10:15:30.480Z,99709.25
2023-02-03T10:19:52.696Z,99731.97
2023-02-03T10:23:57.202Z,99741.66
2023-02-03T10:28:01.608Z,99736.72
2023-02-03T10:32:05.761Z,99730.09
2023-02-03T10:36:30.795Z,99732.16
2023-02-03T10:40:32.913Z,99719.88
2023-02-03T10:44:55.960Z,99707.47
2023-02-03T10:48:58.047Z,99711.00
2023-02-03T10:53:18.424Z,99710.69
2023-02-03T10:57:20.452Z,99708.22
2023-02-03T11:01:24.934Z,99699.03
2023-02-03T11:05:26.946Z,99686.63
2023-02-03T11:09:33.786Z,99671.88
2023-02-03T11:13:36.293Z,99663.81
2023-02-03T11:17:43.843Z,99668.84
2023-02-03T11:21:50.555Z,99675.16
2023-02-03T11:25:52.589Z,99671.28
2023-02-03T11:30:07.226Z,99664.03
2023-02-03T11:34:33.407Z,99668.69
2023-02-03T11:38:36.999Z,99648.41
2023-02-03T11:42:41.514Z,99646.00
2023-02-03T11:46:44.921Z,99639.13
2023-02-03T11:50:49.871Z,99641.19
2023-02-03T11:55:10.605Z,99641.31
2023-02-03T11:59:24.976Z,99632.88
2023-02-03T12:03:36.102Z,99616.91
2023-02-03T12:07:49.831Z,99623.00
2023-02-03T12:12:07.786Z,99611.13
2023-02-03T12:16:13.005Z,99603.50
2023-02-03T12:20:21.237Z,99606.28
2023-02-03T12:24:24.365Z,99591.88
2023-02-03T12:28:34.076Z,99586.31
2023-02-03T12:32:39.428Z,99591.75
2023-02-03T12:36:45.781Z,99560.38
2023-02-03T12:40:52.618Z,99561.19
2023-02-03T12:45:01.192Z,99554.13
2023-02-03T12:49:03.421Z,99547.56
2023-02-03T12:53:17.688Z,99538.75
2023-02-03T12:57:38.652Z,99527.75
2023-02-03T13:01:45.846Z,99528.06
2023-02-03T13:06:03.070Z,99527.81
2023-02-03T13:10:23.958Z,99501.59
2023-02-03T13:14:33.571Z,99492.38
2023-02-03T13:18:37.670Z,99510.94
2023-02-03T13:22:39.735Z,99510.94
2023-02-03T13:26:51.100Z,99516.75
2023-02-03T13:30:53.064Z,99512.56
2023-02-03T13:35:18.686Z,99498.59
2023-02-03T13:39:34.169Z,99492.63
2023-02-03T13:43:39.450Z,99486.38
2023-02-03T13:47:46.698Z,99479.59
2023-02-03T13:51:48.679Z,99481.63
2023-02-03T13:56:01.759Z,99474.13
2023-02-03T14:00:23.723Z,99477.19
2023-02-03T14:04:25.784Z,99475.78
2023-02-03T14:08:27.863Z,99489.38
2023-02-03T14:12:29.852Z,99478.25
2023-02-03T14:16:52.683Z,99480.56
2023-02-03T14:20:58.286Z,99475.28
2023-02-03T14:25:05.691Z,99474.97
2023-02-03T14:29:09.112Z,99486.16
2023-02-03T14:33:11.079Z,99491.88
2023-02-03T14:37:16.085Z,99475.31
2023-02-03T14:41:24.122Z,99475.97
2023-02-03T14:45:45.006Z,99463.53
2023-02-03T14:49:53.131Z,99457.00
2023-02-03T14:53:58.342Z,99439.63
2023-02-03T14:58:02.740Z,99444.59
2023-02-03T15:02:15.210Z,99450.72
2023-02-03T15:06:40.175Z,99459.22
2023-02-03T15:10:44.219Z,99458.03
2023-02-03T15:14:46.328Z,99461.16
2023-02-03T15:19:03.042Z,99457.41
2023-02-03T15:23:18.768Z,99474.31
2023-02-03T15:27:25.385Z,99463.81
2023-02-03T15:31:33.042Z,99471.00
2023-02-03T15:35:42.869Z,99468.03
2023-02-03T15:39:51.168Z,99471.91
2023-02-03T15:43:58.627Z,99455.53
2023-02-03T15:48:12.731Z,99454.66
2023-02-03T15:52:17.265Z,99465.97
2023-02-03T15:56:26.647Z,99472.69
2023-02-03T16:00:39.751Z,99459.19
2023-02-03T16:04:43.124Z,99435.69
2023-02-03T16:08:46.496Z,99442.34
2023-02-03T16:12:48.645Z,99455.66
2023-02-03T16:17:04.741Z,99436.97
2023-02-03T16:21:24.884Z,99434.78
2023-02-03T16:25:28.716Z,99434.50
2023-02-03T16:29:54.621Z,99433.72
2023-02-03T16:34:15.262Z,99429.25
2023-02-03T16:38:36.465Z,99420.16
2023-02-03T16:42:58.581Z,99420.19
2023-02-03T16:47:19.227Z,99414.13
2023-02-03T16:51:21.783Z,99432.81
2023-02-03T16:55:23.889Z,99416.75
2023-02-03T16:59:25.929Z,99418.22
2023-02-03T17:03:28.525Z,99418.56
2023-02-03T17:07:30.535Z,99432.91
2023-02-03T17:11:32.547Z,99443.16
2023-02-03T17:15:35.196Z,99443.19
2023-02-03T17:19:37.258Z,99442.28
2023-02-03T17:23:39.585Z,99435.25
2023-02-03T17:27:41.856Z,99434.34
2023-02-03T17:31:44.102Z,99422.69
2023-02-03T17:35:46.313Z,99425.81
2023-02-03T17:57:05.870Z,99440.69
2023-02-03T18:01:17.708Z,99431.56
2023-02-03T18:05:19.777Z,99426.69
2023-02-03T18:09:21.835Z,99440.91
2023-02-03T18:13:26.213Z,99440.75
2023-02-03T18:17:28.220Z,99419.19
2023-02-03T18:21:32.492Z,99411.69
2023-02-03T18:25:37.672Z,99408.53
2023-02-03T18:29:41.143Z,99397.47
2023-02-03T18:33:43.770Z,99399.88
2023-02-03T18:37:45.918Z,99399.75
2023-02-03T18:41:48.002Z,99407.34
2023-02-03T18:45:50.259Z,99406.06
2023-02-03T18:49:52.302Z,99396.44
2023-02-03T18:53:58.206Z,99391.78
2023-02-03T18:58:00.415Z,99397.84
2023-02-03T19:02:03.534Z,99396.97
2023-02-03T19:06:09.949Z,99381.28
2023-02-03T19:10:12.017Z,99380.84
2023-02-03T19:14:14.415Z,99377.66
2023-02-03T19:18:16.521Z,99378.06
2023-02-03T19:22:18.582Z,99377.91
2023-02-03T19:26:20.775Z,99375.97
2023-02-03T19:30:23.116Z,99375.88
2023-02-03T19:34:26.958Z,99378.69
2023-02-03T19:38:30.600Z,99369.25
2023-02-03T19:42:32.733Z,99356.97
2023-02-03T19:46:37.270Z,99358.13
2023-02-03T19:50:40.945Z,99358.28
2023-02-03T19:54:42.994Z,99345.94
2023-02-03T19:58:50.653Z,99336.41
2023-02-03T20:02:52.751Z,99335.63
2023-02-03T20:06:54.818Z,99327.59
2023-02-03T20:10:56.971Z,99347.53
2023-02-03T20:15:01.584Z,99356.53
2023-02-03T20:19:04.585Z,99363.69
2023-02-03T20:23:06.760Z,99364.56
2023-02-03T20:27:08.870Z,99361.31
2023-02-03T20:31:11.202Z,99346.16
2023-02-03T20:35:13.414Z,99337.72
2023-02-03T20:39:19.834Z,99331.09
2023-02-03T20:43:23.912Z,99333.28
2023-02-03T20:47:26.255Z,99326.44
2023-02-03T20:51:29.327Z,99327.94
2023-02-03T20:55:31.432Z,99322.81
2023-02-03T20:59:33.500Z,99327.31
2023-02-03T21:03:54.059Z,99312.69
2023-02-03T21:07:56.128Z,99313.47
2023-02-03T21:11:58.452Z,99317.41
2023-02-03T21:16:03.587Z,99321.53
2023-02-03T21:20:13.446Z,99316.53
2023-02-03T21:24:28.015Z,99313.50
2023-02-03T21:28:32.447Z,99325.00
2023-02-03T21:32:38.870Z,99316.31
2023-02-03T21:36:40.816Z,99291.31
2023-02-03T21:40:43.285Z,99289.75
2023-02-03T21:44:45.318Z,99286.28
2023-02-03T21:48:54.774Z,99290.94
2023-02-03T21:53:21.624Z,99267.91
2023-02-03T21:57:23.553Z,99275.63
2023-02-03T22:01:27.196Z,99269.72
2023-02-03T22:05:29.433Z,99269.34
2023-02-03T22:09:31.506Z,99273.88
2023-02-03T22:13:33.671Z,99270.41
2023-02-03T22:17:36.542Z,99284.00
2023-02-03T22:21:39.089Z,99285.91
2023-02-03T22:25:41.392Z,99291.13
2023-02-03T22:29:43.361Z,99278.56
2023-02-03T22:33:45.553Z,99285.03
2023-02-03T22:37:47.712Z,99290.34
2023-02-03T22:41:49.628Z,99289.19
2023-02-03T22:45:52.117Z,99280.47
2023-02-03T22:49:54.255Z,99291.94
2023-02-03T22:53:56.399Z,99282.25
2023-02-03T22:57:59.392Z,99278.44
2023-02-03T23:02:01.747Z,99300.84
2023-02-03T23:06:04.172Z,99294.97
2023-02-03T23:10:07.242Z,99292.59
2023-02-03T23:14:10.783Z,99298.19
2023-02-03T23:18:12.946Z,99285.25
2023-02-03T23:22:15.050Z,99277.69
2023-02-03T23:26:17.365Z,99273.78
2023-02-03T23:30:19.826Z,99278.97
2023-02-03T23:34:41.665Z,99284.88
2023-02-03T23:38:43.643Z,99279.72
2023-02-03T23:42:45.868Z,99283.78
2023-02-03T23:46:48.083Z,99270.59
2023-02-03T23:50:50.393Z,99267.88
2023-02-03T23:54:52.379Z,99259.28
2023-02-03T23:58:54.324Z,99250.13
